createdAt,value
2022-09-11T00:01:14.027Z,25.77
2022-09-11T00:03:43.185Z,26.60
2022-09-11T00:06:13.763Z,27.50
2022-09-11T00:08:43.041Z,31.03
2022-09-11T00:11:12.471Z,31.90
2022-09-11T00:13:41.628Z,28.63
2022-09-11T00:16:19.299Z,28.37
2022-09-11T00:18:47.675Z,29.23
2022-09-11T00:21:18.167Z,29.47
2022-09-11T00:23:47.195Z,27.87
2022-09-11T00:26:15.582Z,28.47
2022-09-11T00:28:43.930Z,32.00
2022-09-11T00:31:14.120Z,26.53
2022-09-11T00:33:43.153Z,28.90
2022-09-11T00:36:14.453Z,26.87
2022-09-11T00:38:45.794Z,30.07
2022-09-11T00:41:16.022Z,33.07
2022-09-11T00:43:59.263Z,29.00
2022-09-11T00:46:31.555Z,29.63
2022-09-11T00:49:01.780Z,33.00
2022-09-11T00:51:31.660Z,30.77
2022-09-11T00:54:01.739Z,32.50
2022-09-11T00:56:31.343Z,34.17
2022-09-11T00:59:01.135Z,32.73
2022-09-11T01:01:29.554Z,33.20
2022-09-11T01:03:58.140Z,34.93
2022-09-11T01:06:27.197Z,33.80
2022-09-11T01:08:55.604Z,35.20
2022-09-11T01:11:33.348Z,37.30
2022-09-11T01:14:05.279Z,33.87
2022-09-11T01:16:39.781Z,33.60
2022-09-11T01:19:13.776Z,36.37
2022-09-11T01:21:56.272Z,36.47
2022-09-11T01:24:33.252Z,36.53
2022-09-11T01:27:09.328Z,35.17
2022-09-11T01:29:41.851Z,36.90
2022-09-11T01:32:12.293Z,41.13
2022-09-11T01:34:46.302Z,43.07
2022-09-11T01:37:17.656Z,49.47
2022-09-11T01:39:48.135Z,50.70
2022-09-11T01:42:19.345Z,52.13
2022-09-11T01:44:50.877Z,53.17
2022-09-11T01:47:19.907Z,52.23
2022-09-11T01:49:49.865Z,50.87
2022-09-11T01:52:20.169Z,50.07
2022-09-11T01:54:51.506Z,51.00
2022-09-11T01:57:22.540Z,51.97
2022-09-11T01:59:55.597Z,54.40
2022-09-11T02:02:27.283Z,54.53
2022-09-11T02:04:58.622Z,50.90
2022-09-11T02:07:29.210Z,53.90
2022-09-11T02:09:59.603Z,51.43
2022-09-11T02:12:31.136Z,56.43
2022-09-11T02:15:04.164Z,59.27
2022-09-11T02:17:37.675Z,55.90
2022-09-11T02:20:06.569Z,55.20
2022-09-11T02:22:34.891Z,62.57
2022-09-11T02:25:03.597Z,57.77
2022-09-11T02:27:33.687Z,59.70
2022-09-11T02:30:02.162Z,64.17
2022-09-11T02:32:32.527Z,62.23
2022-09-11T02:35:01.125Z,72.27
2022-09-11T02:37:35.209Z,82.37
2022-09-11T02:40:20.731Z,86.60
2022-09-11T02:43:08.701Z,64.30
2022-09-11T02:45:42.976Z,65.00
2022-09-11T02:48:22.503Z,79.13
2022-09-11T02:50:52.540Z,100.80
2022-09-11T02:53:25.094Z,74.53
2022-09-11T02:55:59.733Z,64.77
2022-09-11T02:58:29.620Z,67.10
2022-09-11T03:01:00.186Z,77.27
2022-09-11T03:03:30.060Z,75.80
2022-09-11T03:05:58.460Z,70.53
2022-09-11T03:08:26.788Z,78.63
2022-09-11T03:10:56.480Z,82.10
2022-09-11T03:13:24.844Z,90.00
2022-09-11T03:15:53.203Z,76.23
2022-09-11T03:18:21.564Z,72.00
2022-09-11T03:20:51.928Z,79.07
2022-09-11T03:23:20.259Z,77.37
2022-09-11T03:25:48.720Z,81.93
2022-09-11T03:28:17.057Z,79.90
2022-09-11T03:30:45.832Z,75.67
2022-09-11T03:33:14.403Z,95.13
2022-09-11T03:35:42.782Z,64.27
2022-09-11T03:38:12.978Z,61.03
2022-09-11T03:40:41.352Z,99.27
2022-09-11T03:43:10.379Z,121.47
2022-09-11T03:45:38.811Z,131.40
2022-09-11T03:48:07.732Z,76.37
2022-09-11T03:50:36.119Z,90.67
2022-09-11T03:53:05.071Z,84.30
2022-09-11T03:55:35.183Z,68.03
2022-09-11T03:58:03.515Z,75.40
2022-09-11T04:00:31.891Z,86.87
2022-09-11T04:03:00.471Z,75.13
2022-09-11T04:05:28.852Z,69.27
2022-09-11T04:07:57.208Z,105.40
2022-09-11T04:10:25.950Z,67.97
2022-09-11T04:12:55.646Z,77.33
2022-09-11T04:15:24.179Z,74.03
2022-09-11T04:17:52.791Z,81.60
2022-09-11T04:20:21.240Z,77.87
2022-09-11T04:22:49.939Z,72.73
2022-09-11T04:25:18.474Z,88.43
2022-09-11T04:27:46.862Z,99.27
2022-09-11T04:30:16.805Z,87.10
2022-09-11T04:32:46.297Z,81.60
2022-09-11T04:35:14.719Z,83.83
2022-09-11T04:37:43.067Z,84.77
2022-09-11T04:40:12.234Z,74.83
2022-09-11T04:42:40.645Z,101.20
2022-09-11T04:45:09.411Z,80.13
2022-09-11T04:47:39.099Z,92.47
2022-09-11T04:50:07.980Z,94.77
2022-09-11T04:52:36.307Z,92.13
2022-09-11T04:55:04.827Z,76.93
2022-09-11T04:57:33.162Z,66.23
2022-09-11T05:00:01.523Z,67.97
2022-09-11T05:02:29.891Z,67.87
2022-09-11T05:04:59.853Z,68.37
2022-09-11T05:07:28.200Z,71.53
2022-09-11T05:09:56.868Z,72.23
2022-09-11T05:12:25.297Z,73.27
2022-09-11T05:14:53.668Z,71.83
2022-09-11T05:17:22.016Z,66.00
2022-09-11T05:19:50.717Z,75.43
2022-09-11T05:22:20.426Z,63.93
2022-09-11T05:24:49.923Z,71.63
2022-09-11T05:27:18.265Z,79.90
2022-09-11T05:29:46.638Z,68.37
2022-09-11T05:32:15.027Z,69.73
2022-09-11T05:34:43.696Z,68.27
2022-09-11T05:37:12.206Z,67.30
2022-09-11T05:39:42.352Z,70.07
2022-09-11T05:42:10.814Z,68.53
2022-09-11T05:44:40.539Z,60.23
2022-09-11T05:47:08.871Z,71.13
2022-09-11T05:49:37.347Z,65.87
2022-09-11T05:52:05.696Z,69.67
2022-09-11T05:54:34.245Z,71.83
2022-09-11T05:57:07.603Z,70.50
2022-09-11T05:59:36.687Z,67.07
2022-09-11T06:02:05.198Z,69.00
2022-09-11T06:04:34.245Z,63.90
2022-09-11T06:07:02.679Z,65.17
2022-09-11T06:09:31.106Z,63.33
2022-09-11T06:12:00.921Z,66.40
2022-09-11T06:14:30.711Z,62.87
2022-09-11T06:16:59.062Z,66.60
2022-09-11T06:19:27.507Z,63.80
2022-09-11T06:21:56.428Z,66.37
2022-09-11T06:24:25.017Z,62.13
2022-09-11T06:26:53.663Z,61.83
2022-09-11T06:29:22.052Z,64.53
2022-09-11T06:31:52.998Z,59.20
2022-09-11T06:34:21.375Z,64.73
2022-09-11T06:36:52.086Z,65.43
2022-09-11T06:39:22.975Z,61.00
2022-09-11T06:41:53.940Z,66.50
2022-09-11T06:44:22.536Z,56.37
2022-09-11T06:46:52.232Z,57.37
2022-09-11T06:49:20.775Z,58.70
2022-09-11T06:51:49.218Z,56.90
2022-09-11T06:54:17.590Z,56.77
2022-09-11T06:56:46.297Z,55.23
2022-09-11T06:59:14.758Z,54.93
2022-09-11T07:01:44.581Z,60.07
2022-09-11T07:04:14.458Z,60.10
2022-09-11T07:06:43.108Z,61.07
2022-09-11T07:09:11.790Z,56.67
2022-09-11T07:11:43.791Z,60.80
2022-09-11T07:14:12.563Z,64.53
2022-09-11T07:16:40.979Z,57.37
2022-09-11T07:19:10.622Z,59.80
2022-09-11T07:21:40.357Z,63.53
2022-09-11T07:24:08.751Z,62.87
2022-09-11T07:26:37.459Z,60.10
2022-09-11T07:29:06.247Z,60.00
2022-09-11T07:31:35.590Z,55.60
2022-09-11T07:34:04.060Z,59.47
2022-09-11T07:36:33.955Z,54.23
2022-09-11T07:39:04.581Z,57.70
2022-09-11T07:41:32.967Z,56.57
2022-09-11T07:44:03.083Z,57.80
2022-09-11T07:46:32.926Z,64.07
2022-09-11T07:49:02.160Z,59.07
2022-09-11T07:51:30.649Z,64.60
2022-09-11T07:54:00.273Z,64.53
2022-09-11T07:56:31.167Z,57.57
2022-09-11T07:58:59.535Z,60.30
2022-09-11T08:01:29.717Z,64.33
2022-09-11T08:03:58.644Z,60.97
2022-09-11T08:06:28.054Z,55.70
2022-09-11T08:08:56.987Z,59.27
2022-09-11T08:11:25.766Z,55.07
2022-09-11T08:13:56.515Z,56.50
2022-09-11T08:16:25.963Z,55.60
2022-09-11T08:18:54.804Z,54.57
2022-09-11T08:21:24.021Z,49.07
2022-09-11T08:23:52.461Z,52.83
2022-09-11T08:26:21.881Z,51.33
2022-09-11T08:28:50.991Z,53.87
2022-09-11T08:31:22.076Z,53.67
2022-09-11T08:33:50.530Z,47.27
2022-09-11T08:36:18.926Z,42.83
2022-09-11T08:38:47.895Z,40.60
2022-09-11T08:41:23.518Z,36.28
2022-09-11T08:43:53.082Z,34.03
2022-09-11T08:46:24.505Z,33.17
2022-09-11T08:48:56.625Z,33.63
2022-09-11T08:51:27.055Z,33.43
2022-09-11T08:53:56.975Z,36.58
2022-09-11T08:56:26.234Z,35.72
2022-09-11T08:59:04.465Z,32.03
2022-09-11T09:01:38.219Z,34.30
2022-09-11T09:04:15.760Z,42.03
2022-09-11T09:06:59.186Z,39.28
2022-09-11T09:09:35.157Z,40.00
2022-09-11T09:12:07.281Z,40.03
2022-09-11T09:14:51.647Z,37.25
2022-09-11T09:17:22.631Z,40.78
2022-09-11T09:19:54.785Z,37.53
2022-09-11T09:22:25.254Z,36.58
2022-09-11T09:25:00.400Z,35.08
2022-09-11T09:27:33.184Z,34.55
2022-09-11T09:30:04.174Z,32.97
2022-09-11T09:32:36.937Z,33.67
2022-09-11T09:35:09.474Z,29.10
2022-09-11T09:37:38.041Z,29.20
2022-09-11T09:40:08.253Z,29.02
2022-09-11T09:42:48.923Z,28.20
2022-09-11T09:45:26.691Z,31.40
2022-09-11T09:47:56.553Z,33.45
2022-09-11T09:50:27.691Z,27.60
2022-09-11T09:52:58.824Z,30.10
2022-09-11T09:55:28.002Z,30.42
2022-09-11T09:57:56.333Z,26.50
2022-09-11T10:00:24.814Z,25.83
2022-09-11T10:02:54.062Z,27.85
2022-09-11T10:05:26.964Z,26.95
2022-09-11T10:07:56.849Z,26.00
2022-09-11T10:10:29.825Z,24.35
2022-09-11T10:13:17.516Z,25.20
2022-09-11T10:15:49.933Z,25.63
2022-09-11T10:18:37.702Z,27.80
2022-09-11T10:21:24.522Z,25.25
2022-09-11T10:23:54.663Z,24.48
2022-09-11T10:26:25.959Z,25.52
2022-09-11T10:28:55.052Z,26.90
2022-09-11T10:31:23.813Z,25.17
2022-09-11T10:33:56.757Z,27.52
2022-09-11T10:36:28.182Z,28.48
2022-09-11T10:38:57.796Z,28.58
2022-09-11T10:41:27.062Z,34.00
2022-09-11T10:43:58.869Z,30.98
2022-09-11T10:46:29.809Z,35.45
2022-09-11T10:48:58.965Z,35.13
2022-09-11T10:51:30.109Z,40.20
2022-09-11T10:54:05.222Z,35.15
2022-09-11T10:56:36.159Z,37.05
2022-09-11T10:59:06.577Z,37.33
2022-09-11T11:01:35.029Z,35.17
2022-09-11T11:04:03.455Z,36.28
2022-09-11T11:06:40.459Z,37.38
2022-09-11T11:09:36.049Z,36.17
2022-09-11T11:12:14.382Z,35.20
2022-09-11T11:14:51.688Z,33.22
2022-09-11T11:17:24.790Z,32.40
2022-09-11T11:20:00.826Z,34.85
2022-09-11T11:22:40.991Z,30.58
2022-09-11T11:25:14.827Z,28.20
2022-09-11T11:28:02.002Z,29.35
2022-09-11T11:30:33.124Z,26.13
2022-09-11T11:33:06.799Z,26.63
2022-09-11T11:35:39.325Z,26.33
2022-09-11T11:38:11.915Z,24.55
2022-09-11T11:40:42.888Z,26.70
2022-09-11T11:43:13.231Z,26.80
2022-09-11T11:45:45.053Z,23.15
2022-09-11T11:48:16.910Z,16.70
2022-09-11T11:50:47.588Z,17.40
2022-09-11T11:53:21.702Z,14.63
2022-09-11T11:55:56.185Z,17.02
2022-09-11T11:58:28.924Z,15.52
2022-09-11T12:01:00.121Z,18.25
2022-09-11T12:03:30.021Z,15.55
2022-09-11T12:05:58.472Z,13.80
2022-09-11T12:08:28.407Z,13.68
2022-09-11T12:10:58.166Z,14.18
2022-09-11T12:13:30.446Z,13.10
2022-09-11T12:16:15.056Z,11.02
2022-09-11T12:18:44.384Z,13.20
2022-09-11T12:21:31.780Z,11.82
2022-09-11T12:24:20.303Z,13.35
2022-09-11T12:26:49.071Z,12.45
2022-09-11T12:29:49.587Z,12.38
2022-09-11T12:32:25.820Z,11.50
2022-09-11T12:34:59.438Z,12.57
2022-09-11T12:37:33.067Z,11.93
2022-09-11T12:40:07.561Z,14.77
2022-09-11T12:42:49.624Z,10.50
2022-09-11T12:45:35.915Z,10.52
2022-09-11T12:48:05.508Z,10.20
2022-09-11T12:50:33.990Z,10.32
2022-09-11T12:53:04.145Z,10.00
2022-09-11T12:55:39.788Z,11.82
2022-09-11T12:58:24.618Z,12.52
2022-09-11T13:01:02.160Z,11.90
2022-09-11T13:03:31.465Z,13.18
2022-09-11T13:06:01.315Z,11.50
2022-09-11T13:08:31.517Z,16.35
2022-09-11T13:11:15.435Z,17.05
2022-09-11T13:13:46.950Z,19.58
2022-09-11T13:16:24.375Z,19.52
2022-09-11T13:18:53.765Z,20.67
2022-09-11T13:21:26.313Z,17.83
2022-09-11T13:23:56.764Z,18.00
2022-09-11T13:26:27.568Z,20.05
2022-09-11T13:28:58.633Z,19.90
2022-09-11T13:31:31.349Z,20.20
2022-09-11T13:34:00.051Z,24.35
2022-09-11T13:36:29.222Z,20.60
2022-09-11T13:39:00.256Z,21.95
2022-09-11T13:41:30.257Z,21.45
2022-09-11T13:44:00.676Z,21.83
2022-09-11T13:46:31.337Z,23.55
2022-09-11T13:49:01.316Z,22.20
2022-09-11T13:51:31.346Z,21.65
2022-09-11T13:54:11.937Z,20.67
2022-09-11T13:56:47.073Z,20.05
2022-09-11T13:59:42.355Z,19.55
2022-09-11T14:02:34.699Z,16.45
2022-09-11T14:05:10.607Z,15.90
2022-09-11T14:07:45.402Z,17.10
2022-09-11T14:10:20.073Z,17.65
2022-09-11T14:12:50.031Z,13.68
2022-09-11T14:15:22.459Z,16.10
2022-09-11T14:17:51.101Z,13.90
2022-09-11T14:20:23.119Z,13.13
2022-09-11T14:22:55.057Z,14.38
2022-09-11T14:25:24.610Z,12.82
2022-09-11T14:27:53.337Z,13.60
2022-09-11T14:30:25.886Z,14.25
2022-09-11T14:33:11.980Z,13.98
2022-09-11T14:35:41.892Z,12.27
2022-09-11T14:38:11.646Z,12.88
2022-09-11T14:40:43.045Z,14.07
2022-09-11T14:43:11.943Z,13.13
2022-09-11T14:45:40.382Z,12.65
2022-09-11T14:48:12.335Z,17.90
2022-09-11T14:50:42.244Z,14.30
2022-09-11T14:53:14.984Z,13.13
2022-09-11T14:55:44.078Z,13.15
2022-09-11T14:58:12.407Z,15.70
2022-09-11T15:00:41.155Z,13.38
2022-09-11T15:03:09.528Z,14.75
2022-09-11T15:05:38.063Z,13.25
2022-09-11T15:08:07.865Z,13.30
2022-09-11T15:10:36.226Z,14.00
2022-09-11T15:13:05.386Z,12.68
2022-09-11T15:15:35.104Z,14.95
2022-09-11T15:18:05.216Z,13.98
2022-09-11T15:20:33.603Z,13.45
2022-09-11T15:23:02.004Z,15.07
2022-09-11T15:25:32.931Z,14.18
2022-09-11T15:28:01.354Z,14.13
2022-09-11T15:30:29.693Z,13.52
2022-09-11T15:32:58.127Z,14.18
2022-09-11T15:35:32.860Z,14.27
2022-09-11T15:38:01.584Z,12.38
2022-09-11T15:40:30.226Z,11.68
2022-09-11T15:42:59.987Z,13.23
2022-09-11T15:45:28.488Z,11.13
2022-09-11T15:48:00.322Z,12.00
2022-09-11T15:50:30.238Z,11.00
2022-09-11T15:52:59.276Z,11.82
2022-09-11T15:55:30.148Z,13.70
2022-09-11T15:58:01.234Z,13.13
2022-09-11T16:00:30.124Z,11.75
2022-09-11T16:02:58.522Z,11.60
2022-09-11T16:05:26.898Z,9.88
2022-09-11T16:07:55.260Z,10.15
2022-09-11T16:10:23.622Z,11.70
2022-09-11T16:12:58.505Z,11.15
2022-09-11T16:15:28.624Z,10.88
2022-09-11T16:17:57.004Z,12.93
2022-09-11T16:20:26.168Z,10.65
2022-09-11T16:22:54.751Z,10.70
2022-09-11T16:25:23.090Z,12.13
2022-09-11T16:27:52.300Z,10.35
2022-09-11T16:30:42.009Z,9.80
2022-09-11T16:33:11.021Z,10.30
2022-09-11T16:35:39.765Z,7.70
2022-09-11T16:38:08.812Z,8.57
2022-09-11T16:40:37.299Z,9.25
2022-09-11T16:43:06.213Z,7.88
2022-09-11T16:45:40.007Z,10.05
2022-09-11T16:48:12.348Z,7.70
2022-09-11T16:50:42.258Z,7.88
2022-09-11T16:53:11.234Z,6.85
2022-09-11T16:55:40.219Z,6.53
2022-09-11T16:58:08.791Z,6.65
2022-09-11T17:00:37.952Z,8.20
2022-09-11T17:03:06.400Z,8.50
2022-09-11T17:05:35.051Z,10.32
2022-09-11T17:08:05.114Z,9.43
2022-09-11T17:10:33.477Z,8.05
2022-09-11T17:13:04.304Z,7.65
2022-09-11T17:15:35.949Z,8.70
2022-09-11T17:18:04.666Z,6.65
2022-09-11T17:20:33.168Z,8.75
2022-09-11T17:23:01.569Z,7.22
2022-09-11T17:25:31.843Z,8.30
2022-09-11T17:28:00.406Z,7.93
2022-09-11T17:30:28.722Z,9.73
2022-09-11T17:33:00.274Z,7.80
2022-09-11T17:35:28.981Z,7.40
2022-09-11T17:37:57.378Z,7.88
2022-09-11T17:40:26.339Z,7.90
2022-09-11T17:42:56.146Z,7.65
2022-09-11T17:45:25.173Z,9.13
2022-09-11T17:47:54.144Z,7.93
2022-09-11T17:50:23.735Z,8.88
2022-09-11T17:52:52.222Z,8.23
2022-09-11T17:55:21.571Z,7.32
2022-09-11T17:57:53.573Z,7.30
2022-09-11T18:00:23.412Z,8.55
2022-09-11T18:03:16.518Z,8.80
2022-09-11T18:05:45.169Z,8.82
2022-09-11T18:08:13.585Z,7.72
2022-09-11T18:10:41.948Z,8.38
2022-09-11T18:13:10.449Z,7.47
2022-09-11T18:15:40.193Z,6.82
2022-09-11T18:18:09.000Z,7.35
2022-09-11T18:20:37.787Z,7.88
2022-09-11T18:23:06.202Z,8.13
2022-09-11T18:25:39.720Z,8.00
2022-09-11T18:28:09.772Z,8.40
2022-09-11T18:30:41.182Z,8.20
2022-09-11T18:33:11.787Z,7.32
2022-09-11T18:35:40.666Z,9.05
2022-09-11T18:38:09.079Z,7.05
2022-09-11T18:40:37.508Z,8.73
2022-09-11T18:43:08.952Z,8.15
2022-09-11T18:45:37.450Z,8.60
2022-09-11T18:48:06.121Z,8.18
2022-09-11T18:50:38.335Z,8.77
2022-09-11T18:53:07.709Z,9.05
2022-09-11T18:55:36.091Z,8.80
2022-09-11T18:58:05.665Z,8.18
2022-09-11T19:00:35.108Z,8.57
2022-09-11T19:03:03.600Z,8.43
2022-09-11T19:05:32.162Z,8.68
2022-09-11T19:08:02.519Z,9.00
2022-09-11T19:10:31.051Z,10.25
2022-09-11T19:13:00.294Z,10.15
2022-09-11T19:15:28.718Z,11.20
2022-09-11T19:18:00.209Z,11.18
2022-09-11T19:20:28.746Z,9.95
2022-09-11T19:23:00.882Z,9.82
2022-09-11T19:25:33.608Z,10.50
2022-09-11T19:28:02.278Z,10.05
2022-09-11T19:30:31.302Z,11.15
2022-09-11T19:33:00.473Z,10.30
2022-09-11T19:35:28.955Z,10.95
2022-09-11T19:37:57.446Z,10.30
2022-09-11T19:40:26.424Z,9.95
2022-09-11T19:42:56.163Z,11.05
2022-09-11T19:45:24.596Z,10.60
2022-09-11T19:47:53.049Z,11.32
2022-09-11T19:50:22.633Z,9.80
2022-09-11T19:52:51.018Z,10.32
2022-09-11T19:55:19.383Z,11.10
2022-09-11T19:57:47.812Z,12.02
2022-09-11T20:00:17.788Z,11.47
2022-09-11T20:02:46.192Z,11.75
2022-09-11T20:05:14.683Z,11.57
2022-09-11T20:07:43.762Z,12.18
2022-09-11T20:10:12.160Z,11.27
2022-09-11T20:12:40.883Z,10.87
2022-09-11T20:15:09.737Z,11.27
2022-09-11T20:17:41.132Z,11.90
2022-09-11T20:20:09.679Z,12.93
2022-09-11T20:22:38.052Z,11.43
2022-09-11T20:25:06.761Z,10.87
2022-09-11T20:27:35.486Z,10.65
2022-09-11T20:30:03.898Z,11.93
2022-09-11T20:32:32.259Z,11.95
2022-09-11T20:35:01.989Z,11.37
2022-09-11T20:37:30.359Z,12.50
2022-09-11T20:40:00.434Z,12.30
2022-09-11T20:42:29.305Z,12.57
2022-09-11T20:44:57.728Z,14.20
2022-09-11T20:47:26.199Z,12.33
2022-09-11T20:49:54.534Z,13.53
2022-09-11T20:52:24.374Z,14.60
2022-09-11T20:54:54.336Z,12.63
2022-09-11T20:57:22.730Z,13.83
2022-09-11T20:59:51.220Z,13.67
2022-09-11T21:02:19.671Z,14.23
2022-09-11T21:04:49.031Z,14.10
2022-09-11T21:07:17.415Z,14.07
2022-09-11T21:09:47.835Z,14.73
2022-09-11T21:12:16.238Z,18.00
2022-09-11T21:14:45.746Z,14.70
2022-09-11T21:17:14.260Z,13.80
2022-09-11T21:19:42.587Z,14.53
2022-09-11T21:22:10.970Z,15.17
2022-09-11T21:24:42.960Z,15.67
2022-09-11T21:27:12.721Z,15.67
2022-09-11T21:29:41.071Z,13.57
2022-09-11T21:32:09.448Z,14.53
2022-09-11T21:34:37.778Z,13.80
2022-09-11T21:37:06.214Z,14.83
2022-09-11T21:39:35.815Z,18.17
2022-09-11T21:42:04.716Z,13.47
2022-09-11T21:44:35.690Z,13.60
2022-09-11T21:47:04.093Z,14.13
2022-09-11T21:49:32.413Z,13.83
2022-09-11T21:52:00.806Z,16.50
2022-09-11T21:54:31.936Z,13.93
2022-09-11T21:57:00.530Z,13.90
2022-09-11T21:59:28.872Z,13.63
2022-09-11T22:01:58.957Z,14.33
2022-09-11T22:04:27.304Z,14.63
2022-09-11T22:06:55.811Z,14.53
2022-09-11T22:09:24.236Z,14.27
2022-09-11T22:11:54.801Z,12.63
2022-09-11T22:14:26.312Z,14.83
2022-09-11T22:16:54.694Z,13.40
2022-09-11T22:19:24.515Z,14.07
2022-09-11T22:21:52.994Z,15.30
2022-09-11T22:24:21.420Z,15.87
2022-09-11T22:26:49.752Z,15.43
2022-09-11T22:29:18.203Z,15.07
2022-09-11T22:31:46.682Z,14.53
2022-09-11T22:34:15.091Z,15.13
2022-09-11T22:36:44.810Z,14.27
2022-09-11T22:39:13.263Z,14.20
2022-09-11T22:41:41.603Z,14.40
2022-09-11T22:44:11.495Z,15.73
2022-09-11T22:46:39.915Z,14.00
2022-09-11T22:49:09.936Z,16.37
2022-09-11T22:51:38.540Z,14.50
2022-09-11T22:54:08.322Z,13.70
2022-09-11T22:56:37.035Z,18.27
2022-09-11T22:59:05.420Z,15.10
2022-09-11T23:01:33.762Z,15.20
2022-09-11T23:04:02.139Z,13.83
2022-09-11T23:06:48.233Z,14.40
2022-09-11T23:09:18.144Z,16.27
2022-09-11T23:11:46.921Z,14.80
2022-09-11T23:14:15.342Z,16.17
2022-09-11T23:16:43.908Z,14.70
2022-09-11T23:19:13.631Z,13.43
2022-09-11T23:21:42.160Z,14.77
2022-09-11T23:24:14.523Z,15.57
2022-09-11T23:26:45.301Z,15.07
2022-09-11T23:29:13.880Z,13.90
2022-09-11T23:31:44.199Z,14.30
2022-09-11T23:34:15.754Z,14.53
2022-09-11T23:36:44.422Z,15.20
2022-09-11T23:39:12.846Z,13.83
2022-09-11T23:41:41.210Z,17.13
2022-09-11T23:44:11.030Z,14.23
2022-09-11T23:46:39.379Z,15.47
2022-09-11T23:49:08.198Z,13.67
2022-09-11T23:51:36.703Z,15.33
2022-09-11T23:54:05.139Z,15.47
2022-09-11T23:56:33.564Z,13.77
2022-09-11T23:59:01.975Z,15.03
